Viking Queen — WDB9919 — position and weather

sailwx.info

Track history (hours):
 
Tides and Currents Weather Stations Pressure Air Temp Water Temp Dewpoint Dewpoint Depression Visibility Wind Speed Wind Dir Waves Ship Positions

Viking Queen

Owner: American River Transportation Company, St Louis, MO. More information available from US FCC via Universal Licensing System and Coast Guard Vessel Documentation Center.

Last reported at 2017-Mar-20 19:30 UTC. Time now 2017-Mar-24 12:00 UTC.
Position N 32°45' W 091°09'.

Length 58 m; draft 3 m.

Type: Towing. MMSI: 366985050.

Date/timePositionNaut miles runAvg speedWind from/ knotsBaromVisibWave heightAir tempDewpointWater temp
2017-Mar-20 19:30N 32°45' W 091°09'5 3.7
2017-Mar-20 18:09N 32°44' W 091°04'6 3.4
2017-Mar-20 16:32N 32°40' W 091°08'4 3.7
2017-Mar-20 15:33N 32°36' W 091°09'4 3.7
2017-Mar-20 14:34N 32°33' W 091°06'4 4.1
2017-Mar-20 13:34N 32°29' W 091°07'4 3.9
2017-Mar-20 12:33N 32°26' W 091°04'4 3.9
2017-Mar-20 11:34N 32°25' W 090°60'3 3.3
2017-Mar-20 10:34N 32°22' W 091°00'4 4.1
2017-Mar-20 09:33N 32°21' W 090°55'3 2.7
2017-Mar-20 08:34N 32°18' W 090°55'0 0.0
2017-Mar-20 07:33N 32°18' W 090°55'0 0.0
2017-Mar-20 06:34N 32°18' W 090°55'0 0.4
2017-Mar-20 05:34N 32°18' W 090°55'0 0.2
2017-Mar-20 04:34N 32°18' W 090°56'0 0.0
2017-Mar-20 03:34N 32°18' W 090°56'0 0.2
2017-Mar-20 02:34N 32°18' W 090°56'3 2.6
2017-Mar-20 01:34N 32°16' W 090°58'4 4.0
2017-Mar-20 00:34N 32°12' W 090°59'4 4.2
2017-Mar-19 23:33N 32°08' W 091°00'4 3.6
2017-Mar-19 22:33N 32°08' W 091°05'2 2.3
2017-Mar-19 21:30N 32°05' W 091°05'4 3.6
2017-Mar-19 20:25N 32°02' W 091°04'0 0.1
2017-Mar-19 19:33N 32°02' W 091°04'  
2017-Mar-15 21:29N 31°57' W 091°11'8 9.2
2017-Mar-15 20:33N 32°03' W 091°04'5 5.0
2017-Mar-15 19:33N 32°08' W 091°04'8 7.5
2017-Mar-15 18:33N 32°14' W 090°59'8 7.5
2017-Mar-15 17:33N 32°21' W 090°55'7 6.8
2017-Mar-15 16:33N 32°26' W 091°01'10 8.2
2017-Mar-15 15:22N 32°34' W 091°07'  
Track history (hours):
 
Tides and Currents Weather Stations Pressure Air Temp Water Temp Dewpoint Dewpoint Depression Visibility Wind Speed Wind Dir Waves Ship Positions

Viking Queen

Owner: American River Transportation Company, St Louis, MO. More information available from US FCC via Universal Licensing System and Coast Guard Vessel Documentation Center.

Last reported at 2017-Mar-20 19:30 UTC. Time now 2017-Mar-24 12:00 UTC.
Position N 32°45' W 091°09'.

Length 58 m; draft 3 m.

Type: Towing. MMSI: 366985050.

Date/timePositionNaut miles runAvg speedWind from/ knotsBaromVisibWave heightAir tempDewpointWater temp
2017-Mar-20 19:30N 32°45' W 091°09'5 3.7
2017-Mar-20 18:09N 32°44' W 091°04'6 3.4
2017-Mar-20 16:32N 32°40' W 091°08'4 3.7
2017-Mar-20 15:33N 32°36' W 091°09'4 3.7
2017-Mar-20 14:34N 32°33' W 091°06'4 4.1
2017-Mar-20 13:34N 32°29' W 091°07'4 3.9
2017-Mar-20 12:33N 32°26' W 091°04'4 3.9
2017-Mar-20 11:34N 32°25' W 090°60'3 3.3
2017-Mar-20 10:34N 32°22' W 091°00'4 4.1
2017-Mar-20 09:33N 32°21' W 090°55'3 2.7
2017-Mar-20 08:34N 32°18' W 090°55'0 0.0
2017-Mar-20 07:33N 32°18' W 090°55'0 0.0
2017-Mar-20 06:34N 32°18' W 090°55'0 0.4
2017-Mar-20 05:34N 32°18' W 090°55'0 0.2
2017-Mar-20 04:34N 32°18' W 090°56'0 0.0
2017-Mar-20 03:34N 32°18' W 090°56'0 0.2
2017-Mar-20 02:34N 32°18' W 090°56'3 2.6
2017-Mar-20 01:34N 32°16' W 090°58'4 4.0
2017-Mar-20 00:34N 32°12' W 090°59'4 4.2
2017-Mar-19 23:33N 32°08' W 091°00'4 3.6
2017-Mar-19 22:33N 32°08' W 091°05'2 2.3
2017-Mar-19 21:30N 32°05' W 091°05'4 3.6
2017-Mar-19 20:25N 32°02' W 091°04'0 0.1
2017-Mar-19 19:33N 32°02' W 091°04'  
2017-Mar-15 21:29N 31°57' W 091°11'8 9.2
2017-Mar-15 20:33N 32°03' W 091°04'5 5.0
2017-Mar-15 19:33N 32°08' W 091°04'8 7.5
2017-Mar-15 18:33N 32°14' W 090°59'8 7.5
2017-Mar-15 17:33N 32°21' W 090°55'7 6.8
2017-Mar-15 16:33N 32°26' W 091°01'10 8.2
2017-Mar-15 15:22N 32°34' W 091°07'  

Dump ship's entire track history